San Martin de los Andes, Argentina
Current Conditions -  °F | °C
As of 3:00 PM on Thursday 23 Oct 2014 (Local Time) from SAZS Reporting Station
Clear Clear  
Wind Chill: 21°   Ceiling: Unl
Heat Index: 21°   Visibility: 6mi
Dew Point: -11°   Wind: 7mph
Humidity: 11%   Direction: 320°NW
Pressure: 30.09"   Gusts: NA
Location:  40.16°S, 71.36°W
Report Text: SAZS 231800Z 32006KT CAVOK 21/M11 Q1019
Loading
Personal Weather Stations






























Interactive Weather Map
Tropical Storm Tracking
New forecast layout! Learn more

10-Day Weather Forecast

Advertisements
Track Severe Weather on mobile